Time;durP1;ratioP1;P1;durP2;ratioP2;P2;SDS_P1;SDS_P2;PMS_P1;PMS_P2;Temp;Humidity;BMP_temperature;BMP_pressure;BME280_temperature;BME280_humidity;BME280_pressure;Samples;Min_cycle;Max_cycle;Signal;HPM_P1;HPM_P2
2022/03/02 00:01:37;;;;;;;28.02;17.25;;;0.80;3.70;;;0.78;60.40;102425.78;5016499;28;20581;-74
2022/03/02 00:04:07;;;;;;;24.63;17.77;;;0.80;4.60;;;0.91;60.21;102421.38;5016392;28;20576;-73
2022/03/02 00:06:37;;;;;;;22.85;16.42;;;0.90;5.50;;;0.95;60.00;102428.19;4998583;28;20244;-73
2022/03/02 00:09:06;;;;;;;24.67;17.88;;;0.90;5.60;;;0.91;60.34;102421.38;5015719;28;20210;-74
2022/03/02 00:11:35;;;;;;;29.73;18.42;;;0.90;6.50;;;0.88;60.88;102418.88;5015842;28;20247;-73
2022/03/02 00:14:05;;;;;;;21.95;16.80;;;0.90;8.10;;;0.90;61.17;102413.47;5015976;28;20272;-75
2022/03/02 00:16:35;;;;;;;26.35;17.63;;;0.90;8.40;;;0.90;61.22;102422.31;5015924;28;20194;-74
2022/03/02 00:19:05;;;;;;;21.38;16.77;;;0.90;8.80;;;0.80;61.15;102418.56;5015921;28;20593;-74
2022/03/02 00:21:36;;;;;;;26.42;18.35;;;0.90;9.00;;;0.90;61.42;102419.66;5015865;28;20678;-75
2022/03/02 00:24:05;;;;;;;24.63;16.55;;;0.90;10.40;;;0.95;60.57;102417.53;5015878;28;20186;-75
2022/03/02 00:26:35;;;;;;;27.75;17.67;;;1.00;10.00;;;0.89;60.78;102423.25;5016165;28;20647;-73
2022/03/02 00:29:05;;;;;;;27.35;16.65;;;1.00;10.30;;;0.88;60.81;102417.06;5015872;28;20218;-74
2022/03/02 00:31:34;;;;;;;21.50;16.00;;;0.90;10.20;;;0.91;60.84;102417.84;5016725;28;20191;-74
2022/03/02 00:34:03;;;;;;;24.27;18.13;;;1.00;11.00;;;0.94;60.66;102423.81;5016374;28;20171;-74
2022/03/02 00:36:32;;;;;;;20.95;16.08;;;1.00;10.90;;;1.02;60.48;102424.13;5019397;28;20281;-75
2022/03/02 00:39:03;;;;;;;21.75;14.65;;;1.00;11.60;;;0.99;60.50;102421.69;5025830;28;20214;-74
2022/03/02 00:41:32;;;;;;;26.25;15.65;;;1.00;11.30;;;1.02;60.57;102417.94;5026066;28;20174;-74
2022/03/02 00:44:01;;;;;;;20.00;16.00;;;1.00;11.50;;;0.99;60.53;102419.03;5026121;28;20214;-74
2022/03/02 00:46:31;;;;;;;29.88;17.95;;;1.00;11.40;;;0.99;60.43;102419.03;5018211;28;20193;-74
2022/03/02 00:49:02;;;;;;;21.40;15.07;;;1.00;12.00;;;1.02;60.58;102413.47;5016585;28;20218;-74
2022/03/02 00:51:31;;;;;;;20.80;14.98;;;1.00;12.00;;;1.05;60.89;102413.28;5015086;28;20222;-74
2022/03/02 00:54:02;;;;;;;18.08;15.88;;;1.10;13.20;;;1.02;60.83;102405.47;5013887;28;20732;-74
2022/03/02 00:56:31;;;;;;;27.85;19.10;;;1.10;14.20;;;1.00;60.44;102404.75;5015743;28;20186;-74
2022/03/02 00:59:00;;;;;;;26.15;16.80;;;1.00;13.60;;;1.02;60.58;102418.81;5016222;28;20726;-74
2022/03/02 01:01:29;;;;;;;24.95;15.80;;;1.00;14.00;;;1.01;61.00;102411.78;5025517;28;20190;-74
2022/03/02 01:03:58;;;;;;;26.20;16.77;;;1.00;14.30;;;0.98;60.77;102397.78;5027789;28;20194;-74
2022/03/02 01:06:27;;;;;;;27.38;18.58;;;1.00;13.80;;;1.02;60.66;102402.81;5028562;28;20194;-75
2022/03/02 01:08:57;;;;;;;29.58;18.35;;;1.00;14.70;;;1.20;60.43;102406.91;5009408;28;20222;-74
2022/03/02 01:11:28;;;;;;;21.77;18.27;;;1.10;15.60;;;1.16;60.27;102408.06;5025904;28;20198;-74
2022/03/02 01:13:57;;;;;;;24.30;17.17;;;1.10;15.40;;;1.12;60.59;102403.91;5027037;28;20178;-74
2022/03/02 01:16:26;;;;;;;24.13;16.70;;;1.10;15.50;;;1.06;60.74;102412.34;5025221;28;20186;-74
2022/03/02 01:18:55;;;;;;;21.38;17.90;;;1.10;16.00;;;1.02;60.59;102402.81;5014911;28;20213;-75
2022/03/02 01:21:23;;;;;;;19.63;16.98;;;1.00;16.50;;;0.98;60.90;102395.97;5014949;28;20177;-74
2022/03/02 01:23:53;;;;;;;29.17;18.65;;;1.00;16.40;;;0.93;60.80;102398.09;5020909;28;20190;-73
2022/03/02 01:26:24;;;;;;;26.35;17.60;;;0.90;17.30;;;1.00;61.06;102387.91;5020674;28;20174;-74
2022/03/02 01:28:55;;;;;;;24.77;16.95;;;1.00;18.10;;;1.03;61.01;102387.66;5021018;28;20217;-75
2022/03/02 01:31:26;;;;;;;20.80;18.02;;;1.00;18.40;;;1.00;60.77;102386.09;5022261;28;20237;-75
2022/03/02 01:33:55;;;;;;;27.13;19.40;;;1.00;18.80;;;0.95;60.96;102380.22;5021188;28;20190;-75
2022/03/02 01:36:25;;;;;;;26.55;20.60;;;1.00;19.10;;;0.92;61.18;102380.41;5016670;28;20277;-73
2022/03/02 01:38:54;;;;;;;27.50;19.00;;;0.90;19.50;;;0.92;61.53;102379.56;5017044;28;20214;-74
2022/03/02 01:41:26;;;;;;;32.20;19.92;;;0.90;20.40;;;0.90;61.43;102378.81;5020751;28;20539;-74
2022/03/02 01:43:57;;;;;;;26.50;20.08;;;0.90;20.70;;;0.87;61.65;102374.56;5021125;28;20245;-73
2022/03/02 01:46:26;;;;;;;30.52;22.70;;;0.90;21.60;;;0.80;62.05;102378.56;5019027;28;20248;-75
2022/03/02 01:48:55;;;;;;;35.13;20.42;;;0.90;22.00;;;0.77;61.90;102371.66;5015829;28;20209;-74
2022/03/02 01:51:25;;;;;;;29.65;19.98;;;0.80;22.80;;;0.74;62.57;102370.97;5014145;28;20232;-74
2022/03/02 01:53:54;;;;;;;32.75;20.02;;;0.80;24.10;;;0.69;62.56;102373.09;5014367;28;20265;-73
2022/03/02 01:56:24;;;;;;;26.85;20.48;;;0.70;24.50;;;0.63;62.90;102361.03;5014207;28;20182;-73
2022/03/02 01:58:53;;;;;;;31.13;20.35;;;0.70;25.10;;;0.61;63.02;102362.97;5014459;28;20725;-74
2022/03/02 02:01:23;;;;;;;29.25;21.10;;;0.70;26.10;;;0.62;62.88;102355.84;5013775;28;20167;-74
2022/03/02 02:03:53;;;;;;;28.23;19.98;;;0.60;27.10;;;0.59;63.07;102348.03;5013689;28;20171;-73
2022/03/02 02:06:22;;;;;;;26.25;19.85;;;0.60;27.40;;;0.56;62.88;102342.91;5013113;28;20670;-73
2022/03/02 02:08:52;;;;;;;27.35;20.15;;;0.60;27.70;;;0.50;63.34;102336.19;4996163;28;20206;-74
2022/03/02 02:11:21;;;;;;;31.67;20.45;;;0.60;28.50;;;0.49;63.21;102337.13;4996124;28;20210;-72
2022/03/02 02:13:50;;;;;;;30.80;18.65;;;0.60;29.80;;;0.46;63.35;102329.34;5013492;28;20186;-73
2022/03/02 02:16:24;;;;;;;26.83;20.55;;;0.50;30.70;;;0.48;63.67;102331.94;5013547;28;20289;-75
2022/03/02 02:18:54;;;;;;;30.08;17.75;;;0.50;32.90;;;0.68;64.77;102334.09;5013718;28;20209;-73
2022/03/02 02:21:25;;;;;;;25.33;18.17;;;0.60;38.50;;;0.72;63.86;102328.47;5013566;28;20162;-74
2022/03/02 02:23:54;;;;;;;32.05;21.73;;;0.70;38.50;;;0.72;64.08;102327.63;5012375;28;20257;-72
2022/03/02 02:26:25;;;;;;;25.65;19.00;;;0.70;38.90;;;0.65;63.64;102323.66;5013913;28;20179;-75
2022/03/02 02:28:55;;;;;;;27.27;19.55;;;0.70;37.70;;;0.64;63.77;102321.94;5013501;28;20217;-72
2022/03/02 02:31:25;;;;;;;26.02;18.70;;;0.70;38.30;;;0.64;63.91;102317.47;5013169;28;20704;-75
2022/03/02 02:33:54;;;;;;;27.08;18.65;;;0.70;38.30;;;0.59;63.29;102316.91;5013194;28;20190;-74
2022/03/02 02:36:26;;;;;;;23.60;18.00;;;0.60;38.50;;;0.63;63.97;102322.91;5013128;28;20338;-75
2022/03/02 02:38:55;;;;;;;25.30;19.73;;;0.60;40.10;;;0.64;63.36;102311.28;5013542;28;20672;-74
2022/03/02 02:41:25;;;;;;;25.90;19.80;;;0.60;40.50;;;0.58;63.60;102298.41;5013239;28;20269;-73
2022/03/02 02:43:54;;;;;;;29.02;18.77;;;0.60;40.00;;;0.57;63.43;102305.53;5013785;28;20217;-75
2022/03/02 02:46:23;;;;;;;29.58;20.30;;;0.60;41.00;;;0.54;63.62;102304.84;4995840;28;20236;-75
2022/03/02 02:48:52;;;;;;;28.63;19.77;;;0.60;41.40;;;0.55;63.64;102295.91;5013375;28;20637;-74
2022/03/02 02:51:21;;;;;;;25.25;20.02;;;0.60;41.90;;;0.61;63.52;102298.16;5013538;28;20206;-73
2022/03/02 02:53:51;;;;;;;25.73;17.35;;;0.60;43.40;;;0.64;63.63;102308.59;5012811;28;20198;-73
2022/03/02 02:56:21;;;;;;;21.05;16.58;;;0.60;43.80;;;0.64;63.58;102300.63;5012971;28;20262;-73
2022/03/02 02:58:50;;;;;;;23.02;17.40;;;0.60;43.60;;;0.61;63.52;102299.03;5013129;28;20705;-73
2022/03/02 03:01:18;;;;;;;34.13;19.65;;;0.60;43.00;;;0.61;63.53;102308.84;5012814;28;20265;-73
2022/03/02 03:03:49;;;;;;;25.45;18.73;;;0.60;44.10;;;0.60;63.37;102304.44;5012726;28;20186;-75
2022/03/02 03:06:18;;;;;;;28.70;17.77;;;0.60;43.40;;;0.60;63.55;102293.78;4995462;28;20225;-74
2022/03/02 03:08:47;;;;;;;25.33;17.40;;;0.60;43.80;;;0.61;63.71;102295.50;4995054;28;20218;-74
2022/03/02 03:11:19;;;;;;;31.20;19.58;;;0.60;44.80;;;0.71;63.73;102293.94;5012870;28;20186;-74
2022/03/02 03:13:48;;;;;;;25.50;17.33;;;0.70;45.40;;;0.77;63.47;102286.38;5012957;28;20561;-74
2022/03/02 03:16:17;;;;;;;26.92;17.35;;;0.70;45.50;;;0.80;63.26;102282.63;5012775;28;20281;-74
2022/03/02 03:18:46;;;;;;;22.70;16.48;;;0.80;45.20;;;0.88;63.38;102285.63;5012732;28;20640;-75
2022/03/02 03:21:15;;;;;;;26.70;16.05;;;0.80;45.60;;;0.92;63.12;102278.28;5012894;28;20236;-74
2022/03/02 03:23:44;;;;;;;23.80;18.95;;;0.90;46.20;;;0.94;62.94;102277.19;5012657;28;20186;-74
2022/03/02 03:26:12;;;;;;;21.45;15.90;;;0.90;44.90;;;0.94;62.81;102271.00;5012471;28;20209;-73
2022/03/02 03:28:43;;;;;;;23.42;18.65;;;0.90;44.70;;;0.93;63.12;102283.47;5012412;28;20221;-73
2022/03/02 03:31:12;;;;;;;28.92;18.70;;;0.90;45.00;;;0.92;62.54;102272.94;5012587;28;20588;-73
2022/03/02 03:33:41;;;;;;;29.25;17.17;;;0.90;43.80;;;0.90;62.56;102269.53;5012392;28;20202;-73
2022/03/02 03:36:09;;;;;;;27.13;19.05;;;0.90;43.70;;;0.87;62.83;102265.28;5012306;28;20174;-73
2022/03/02 03:38:38;;;;;;;25.27;18.50;;;0.90;44.60;;;0.91;62.88;102260.56;5012819;28;20764;-73
2022/03/02 03:41:07;;;;;;;27.55;17.15;;;0.90;45.20;;;0.88;63.09;102264.28;5012543;28;20570;-75
2022/03/02 03:43:36;;;;;;;28.23;17.88;;;0.90;45.20;;;0.87;62.97;102267.94;5013480;28;20670;-74
2022/03/02 03:46:06;;;;;;;22.25;16.77;;;0.90;45.70;;;0.88;62.89;102266.97;5013295;28;20186;-73
2022/03/02 03:48:35;;;;;;;26.58;17.92;;;0.90;46.30;;;0.99;62.81;102267.06;4995875;28;20210;-73
2022/03/02 03:51:06;;;;;;;26.50;17.52;;;0.90;47.00;;;0.97;62.78;102268.16;5013214;28;20581;-74
2022/03/02 03:53:35;;;;;;;24.65;17.25;;;1.00;45.80;;;1.04;62.83;102272.94;5013388;28;20515;-74
2022/03/02 03:56:05;;;;;;;27.80;18.27;;;1.00;47.60;;;0.98;62.87;102262.69;5013090;28;20197;-74
2022/03/02 03:58:34;;;;;;;29.02;17.92;;;0.90;45.50;;;0.95;62.61;102257.59;4995755;28;20216;-75
2022/03/02 04:01:03;;;;;;;20.50;17.58;;;0.90;45.20;;;0.98;62.73;102260.03;5014270;28;20591;-74
2022/03/02 04:03:36;;;;;;;25.45;18.25;;;0.90;46.50;;;1.00;62.39;102263.47;5016819;28;20186;-73
2022/03/02 04:06:06;;;;;;;23.05;15.90;;;1.00;46.00;;;0.97;62.50;102260.97;5012434;28;20182;-75
2022/03/02 04:08:35;;;;;;;21.63;16.65;;;1.00;45.80;;;0.97;62.47;102273.50;4994733;28;20586;-75
2022/03/02 04:11:04;;;;;;;27.25;16.88;;;0.90;45.70;;;0.93;62.60;102270.16;5012488;28;20240;-73
2022/03/02 04:13:32;;;;;;;26.48;18.45;;;0.90;45.30;;;1.02;62.44;102271.31;5012534;28;20305;-74
2022/03/02 04:16:01;;;;;;;22.63;17.35;;;1.00;45.80;;;0.97;62.53;102276.97;5012358;28;20186;-74
2022/03/02 04:18:31;;;;;;;22.23;16.85;;;0.90;45.20;;;0.95;62.53;102267.41;5011935;28;20241;-74
2022/03/02 04:21:02;;;;;;;29.40;18.45;;;0.90;46.20;;;1.08;62.03;102258.44;5011872;28;20262;-73
2022/03/02 04:23:31;;;;;;;23.27;17.15;;;1.00;46.20;;;1.20;62.04;102256.72;5011869;28;20165;-74
2022/03/02 04:26:01;;;;;;;26.63;17.83;;;1.10;46.60;;;1.08;62.04;102255.75;5012076;28;20198;-73
2022/03/02 04:28:30;;;;;;;27.90;17.85;;;1.10;45.90;;;0.97;62.11;102262.81;5011961;28;20217;-73
2022/03/02 04:30:59;;;;;;;26.45;19.17;;;1.00;45.10;;;1.04;62.44;102262.28;5016316;28;20553;-74
2022/03/02 04:33:28;;;;;;;29.40;18.92;;;1.00;46.50;;;1.00;62.50;102259.94;5017690;28;20206;-75
2022/03/02 04:35:57;;;;;;;25.27;16.52;;;1.00;45.90;;;0.98;62.67;102262.69;5016708;28;20186;-75
2022/03/02 04:38:27;;;;;;;28.25;18.05;;;1.00;56.80;;;0.98;62.23;102262.69;5016959;28;20617;-75
2022/03/02 04:40:57;;;;;;;32.22;18.45;;;1.00;46.50;;;0.95;62.34;102262.91;5016496;28;20671;-74
2022/03/02 04:43:26;;;;;;;27.77;18.00;;;0.90;46.70;;;0.94;62.50;102266.53;4998937;28;20269;-74
2022/03/02 04:45:55;;;;;;;27.33;18.27;;;0.90;46.70;;;0.93;62.70;102263.97;5016759;28;20183;-74
2022/03/02 04:48:24;;;;;;;29.83;18.58;;;0.90;46.70;;;0.92;62.34;102256.97;5024698;28;20210;-76
2022/03/02 04:50:53;;;;;;;28.05;18.77;;;0.90;46.90;;;1.02;62.66;102256.19;5025544;28;20186;-75
2022/03/02 04:53:23;;;;;;;27.55;19.42;;;0.90;48.40;;;1.04;62.25;102254.28;5026117;28;20201;-74
2022/03/02 04:55:54;;;;;;;31.42;17.90;;;1.00;48.20;;;1.05;62.14;102252.47;5024887;28;20186;-74
2022/03/02 04:58:23;;;;;;;28.33;20.17;;;1.00;47.30;;;0.99;62.53;102243.09;5024960;28;20210;-75
2022/03/02 05:00:52;;;;;;;30.75;19.20;;;1.00;47.30;;;1.02;62.71;102245.53;5017533;28;20228;-74
2022/03/02 05:03:21;;;;;;;27.38;20.02;;;1.00;47.80;;;1.03;62.47;102239.25;5016018;28;20189;-73
2022/03/02 05:05:51;;;;;;;28.88;18.90;;;1.00;48.00;;;1.02;62.12;102237.53;5016546;28;20232;-74
2022/03/02 05:08:20;;;;;;;28.77;20.25;;;1.00;47.30;;;1.03;62.32;102238.38;5016182;28;20690;-76
2022/03/02 05:10:48;;;;;;;33.67;21.52;;;1.00;47.10;;;0.98;62.09;102238.69;5017085;28;20240;-73
2022/03/02 05:13:19;;;;;;;26.42;20.98;;;1.00;46.70;;;0.93;62.12;102235.50;4997582;28;20214;-74
2022/03/02 05:15:48;;;;;;;26.73;18.00;;;0.90;46.20;;;1.01;62.06;102230.50;5015542;28;20179;-75
2022/03/02 05:18:16;;;;;;;34.90;20.85;;;1.00;46.80;;;1.00;62.09;102228.81;5015733;28;20261;-74
2022/03/02 05:20:45;;;;;;;27.10;20.27;;;1.00;46.80;;;0.99;61.69;102240.41;5015931;28;20189;-74
2022/03/02 05:23:14;;;;;;;24.33;18.30;;;1.00;46.00;;;1.08;61.39;102228.25;5015209;28;20265;-74
2022/03/02 05:25:43;;;;;;;32.58;20.17;;;1.00;45.70;;;1.09;61.62;102227.28;5014924;28;20201;-74
2022/03/02 05:28:12;;;;;;;34.03;22.05;;;1.00;45.00;;;1.02;61.44;102231.34;5037841;23;20295;-72
2022/03/02 05:30:42;;;;;;;31.13;19.52;;;1.00;44.50;;;0.95;61.61;102236.25;5014327;28;20663;-72
2022/03/02 05:33:11;;;;;;;35.33;22.05;;;0.90;44.00;;;0.92;61.45;102236.47;5013993;28;20198;-72
2022/03/02 05:35:40;;;;;;;25.55;19.17;;;0.90;43.80;;;0.93;61.57;102230.19;5014212;28;20177;-72
2022/03/02 05:38:09;;;;;;;32.83;22.35;;;0.90;44.50;;;0.99;61.78;102231.56;5011638;28;20217;-73
2022/03/02 05:40:38;;;;;;;33.40;22.52;;;1.00;45.50;;;1.00;61.32;102228.81;4993385;28;20718;-73
2022/03/02 05:43:07;;;;;;;30.88;21.20;;;1.00;44.50;;;1.02;61.39;102232.19;4977044;28;20246;-73
2022/03/02 05:45:39;;;;;;;44.05;29.50;;;1.00;54.70;;;1.03;61.30;102225.91;4994466;28;20551;-72
2022/03/02 05:48:09;;;;;;;37.10;23.10;;;1.00;43.80;;;1.05;61.40;102221.34;4994376;28;20171;-72
2022/03/02 05:50:38;;;;;;;31.90;21.90;;;1.00;44.50;;;1.14;61.18;102227.81;4994434;28;20554;-73
2022/03/02 05:53:09;;;;;;;42.67;24.67;;;1.10;44.70;;;1.13;61.23;102218.97;4976673;28;20269;-73
2022/03/02 05:55:38;;;;;;;32.35;21.75;;;1.10;46.00;;;1.15;61.32;102217.06;4994262;28;20269;-73
2022/03/02 05:58:07;;;;;;;32.53;22.73;;;1.10;45.40;;;1.21;60.81;102226.44;4994108;28;20609;-73
2022/03/02 06:00:36;;;;;;;31.30;19.73;;;1.20;44.70;;;1.18;61.02;102219.50;4994316;28;20198;-73
2022/03/02 06:03:05;;;;;;;32.75;23.17;;;1.20;43.90;;;1.39;60.93;102226.91;4993825;28;20195;-71
2022/03/02 06:05:36;;;;;;;32.92;23.65;;;1.20;45.60;;;1.42;60.58;102229.34;4993882;28;20197;-72
2022/03/02 06:08:07;;;;;;;41.60;23.42;;;1.30;44.70;;;1.47;60.68;102238.75;4993805;28;20175;-72
2022/03/02 06:10:37;;;;;;;36.80;24.48;;;1.40;45.10;;;1.39;60.20;102237.59;4994194;28;20191;-73
2022/03/02 06:13:07;;;;;;;38.17;23.60;;;1.40;52.50;;;1.36;60.18;102241.31;4994778;28;20195;-74
2022/03/02 06:15:37;;;;;;;44.03;27.80;;;1.40;41.90;;;1.40;59.62;102244.63;4995553;28;20178;-73
2022/03/02 06:18:08;;;;;;;34.13;23.98;;;1.30;40.90;;;1.36;59.98;102235.13;4994510;28;20179;-73
2022/03/02 06:20:39;;;;;;;34.85;25.15;;;1.30;41.50;;;1.39;59.66;102240.25;4977124;28;20183;-74
2022/03/02 06:23:08;;;;;;;38.92;29.35;;;1.30;40.00;;;1.51;60.01;102234.03;4994035;28;20191;-72
2022/03/02 06:25:39;;;;;;;39.53;25.83;;;1.40;41.20;;;1.60;59.02;102228.00;4993920;28;20210;-73
2022/03/02 06:28:07;;;;;;;41.50;27.02;;;1.50;40.50;;;1.60;59.42;102228.00;4993746;28;20191;-73
2022/03/02 06:30:36;;;;;;;37.22;26.33;;;1.60;39.60;;;1.64;59.48;102229.53;4993789;28;20214;-72
2022/03/02 06:33:05;;;;;;;37.05;26.48;;;1.60;39.60;;;1.65;59.55;102231.19;4994170;28;20197;-74
2022/03/02 06:35:34;;;;;;;35.22;24.40;;;1.60;39.60;;;1.70;59.04;102234.38;4994544;28;20210;-74
2022/03/02 06:38:05;;;;;;;38.63;27.58;;;1.60;39.40;;;1.68;58.97;102231.00;4994093;28;20182;-73
2022/03/02 06:40:34;;;;;;;40.10;27.67;;;1.60;38.40;;;1.69;58.90;102232.72;4993327;28;20179;-73
2022/03/02 06:43:07;;;;;;;40.28;27.50;;;1.60;38.00;;;1.70;59.36;102239.72;4993466;28;20187;-73
2022/03/02 06:45:51;;;;;;;43.63;26.88;;;1.60;38.50;;;1.78;58.89;102245.38;4993458;28;20204;-73
2022/03/02 06:48:25;;;;;;;42.53;29.05;;;1.70;39.50;;;1.78;59.07;102237.38;4993618;28;20211;-74
2022/03/02 06:50:59;;;;;;;49.42;28.35;;;1.70;38.40;;;1.72;59.22;102238.66;4989007;28;20193;-73
2022/03/02 06:53:35;;;;;;;41.72;28.45;;;1.70;38.60;;;1.78;58.79;102248.03;4994472;28;20199;-73
2022/03/02 06:56:08;;;;;;;39.45;28.20;;;1.70;38.00;;;1.74;58.89;102242.06;4994788;28;20640;-75
2022/03/02 06:58:43;;;;;;;40.60;28.33;;;1.70;37.70;;;1.79;58.83;102244.41;4994510;28;20225;-75
2022/03/02 07:01:14;;;;;;;37.40;27.38;;;1.70;37.80;;;1.85;58.88;102241.28;4993511;28;20611;-73
2022/03/02 07:03:49;;;;;;;41.80;30.35;;;1.70;38.10;;;1.80;58.96;102246.09;4993493;28;20176;-75
2022/03/02 07:06:18;;;;;;;36.50;26.95;;;1.80;37.70;;;1.90;59.10;102241.78;4993184;28;20233;-73
2022/03/02 07:08:49;;;;;;;37.67;27.92;;;1.80;38.50;;;2.06;58.68;102246.84;4992878;28;20717;-73
2022/03/02 07:11:18;;;;;;;44.53;28.13;;;1.90;39.80;;;2.08;58.51;102240.41;4993183;28;20245;-72
2022/03/02 07:13:50;;;;;;;42.00;28.08;;;2.00;38.90;;;2.09;58.73;102228.75;4992736;28;20292;-72
2022/03/02 07:16:21;;;;;;;34.60;26.30;;;2.00;38.40;;;2.10;58.51;102240.31;4992838;28;20191;-72
2022/03/02 07:18:52;;;;;;;42.30;30.73;;;2.00;37.50;;;2.21;58.37;102242.19;4992921;28;20221;-73
2022/03/02 07:21:29;;;;;;;39.78;27.70;;;2.10;38.60;;;2.24;58.66;102233.91;4992722;28;20175;-73
2022/03/02 07:24:12;;;;;;;40.83;27.38;;;2.10;38.30;;;2.30;58.04;102231.66;4992632;28;20703;-72
2022/03/02 07:26:46;;;;;;;41.58;28.38;;;2.20;38.00;;;2.38;57.76;102239.91;4992814;28;20175;-72
2022/03/02 07:29:15;;;;;;;40.58;27.88;;;2.20;37.20;;;2.40;57.35;102239.81;4992918;28;20218;-73
2022/03/02 07:31:46;;;;;;;39.58;26.88;;;2.30;36.20;;;2.36;57.11;102233.84;4992772;28;20198;-73
2022/03/02 07:34:22;;;;;;;44.63;27.25;;;2.20;35.00;;;2.41;57.19;102236.19;4992868;28;20687;-73
2022/03/02 07:36:52;;;;;;;40.90;28.55;;;2.20;34.00;;;2.58;56.65;102239.25;4992340;28;20278;-74
2022/03/02 07:39:23;;;;;;;45.78;27.02;;;2.40;34.70;;;2.58;56.81;102227.72;4992709;28;20261;-72
2022/03/02 07:41:52;;;;;;;43.00;27.98;;;2.40;34.30;;;2.46;56.61;102234.00;4992697;28;20175;-72
2022/03/02 07:44:21;;;;;;;36.33;25.02;;;2.30;32.40;;;2.57;56.90;102226.84;4992547;28;20278;-73
2022/03/02 07:46:52;;;;;;;36.25;28.10;;;2.40;33.30;;;2.62;56.88;102231.84;4994393;28;20206;-73
2022/03/02 07:49:21;;;;;;;35.40;26.25;;;2.40;33.30;;;2.68;56.62;102233.19;4991226;28;20242;-72
2022/03/02 07:51:55;;;;;;;36.58;25.40;;;2.50;32.60;;;2.77;56.12;102233.34;4993055;28;20194;-73
2022/03/02 07:54:30;;;;;;;51.60;29.80;;;2.50;32.10;;;2.83;55.90;102232.88;4993039;28;20210;-72
2022/03/02 07:57:00;;;;;;;35.55;27.73;;;2.60;31.60;;;2.91;55.61;102225.09;4992787;28;20182;-73
2022/03/02 07:59:36;;;;;;;36.97;25.58;;;2.70;31.70;;;3.01;55.55;102220.72;4994240;28;20219;-73
2022/03/02 08:02:08;;;;;;;36.42;26.17;;;2.80;30.90;;;3.14;55.14;102225.09;4994927;28;20679;-73
2022/03/02 08:04:38;;;;;;;45.80;27.58;;;2.90;30.10;;;3.18;54.81;102226.56;4994737;28;20622;-73
2022/03/02 08:07:10;;;;;;;35.88;26.30;;;3.00;30.10;;;3.29;54.94;102229.25;4996411;28;20234;-73
2022/03/02 08:09:42;;;;;;;39.88;27.65;;;3.00;30.00;;;3.44;54.19;102225.31;4996471;28;20216;-73
2022/03/02 08:12:13;;;;;;;38.72;27.52;;;3.10;29.30;;;3.46;54.05;102220.69;4996406;28;20648;-73
2022/03/02 08:14:44;;;;;;;40.67;27.30;;;3.20;29.10;;;3.53;53.93;102221.91;4996716;28;20543;-74
2022/03/02 08:17:13;;;;;;;41.70;27.33;;;3.30;28.30;;;3.62;53.80;102226.53;4996662;28;20187;-74
2022/03/02 08:19:46;;;;;;;34.42;26.63;;;3.40;28.10;;;3.64;53.60;102219.19;4996445;28;20206;-75
2022/03/02 08:22:18;;;;;;;44.97;29.13;;;3.40;26.90;;;3.79;53.51;102223.31;4996668;28;20610;-75
2022/03/02 08:24:57;;;;;;;36.50;26.65;;;3.60;27.80;;;3.93;52.96;102214.97;4996778;28;20654;-74
2022/03/02 08:27:27;;;;;;;31.50;24.27;;;3.60;26.60;;;4.14;52.48;102208.81;4996476;28;20553;-74
2022/03/02 08:29:57;;;;;;;38.67;26.90;;;3.80;26.40;;;4.02;52.75;102208.00;4996350;28;20225;-75
2022/03/02 08:32:26;;;;;;;36.92;25.40;;;3.80;25.70;;;4.01;52.83;102216.19;4996369;28;20183;-74
2022/03/02 08:34:57;;;;;;;47.85;27.70;;;3.70;25.10;;;4.14;52.95;102208.81;4996060;28;20297;-73
2022/03/02 08:37:28;;;;;;;37.95;26.52;;;3.90;25.30;;;4.39;52.30;102203.09;4995848;28;20194;-73
2022/03/02 08:40:00;;;;;;;42.47;28.45;;;4.00;25.60;;;4.44;51.92;102200.88;4996152;28;20202;-73
2022/03/02 08:42:29;;;;;;;34.95;25.30;;;4.10;25.00;;;4.50;52.12;102200.34;4995969;28;20175;-73
2022/03/02 08:44:58;;;;;;;37.53;26.70;;;4.20;24.80;;;4.60;51.63;102203.91;4995888;28;20191;-74
2022/03/02 08:47:27;;;;;;;35.85;27.20;;;4.30;24.10;;;4.68;51.44;102193.41;4995886;28;20217;-74
2022/03/02 08:49:56;;;;;;;38.00;26.10;;;4.40;23.60;;;4.86;50.77;102203.50;4995979;28;20250;-74
2022/03/02 08:52:28;;;;;;;39.45;24.70;;;4.50;23.60;;;4.87;50.14;102189.13;4995987;28;20244;-73
2022/03/02 08:55:04;;;;;;;42.22;26.50;;;4.60;22.40;;;4.66;50.61;102203.41;4983154;28;20258;-73
2022/03/02 08:57:34;;;;;;;36.78;27.17;;;4.50;21.30;;;4.67;50.61;102194.38;4976344;28;20196;-73
2022/03/02 09:00:10;;;;;;;35.03;25.08;;;4.40;20.70;;;4.56;51.07;102190.91;4976328;28;20286;-73
2022/03/02 09:02:43;;;;;;;40.13;25.02;;;4.40;20.00;;;4.66;50.62;102192.66;4976242;28;20190;-73
2022/03/02 09:05:12;;;;;;;34.10;26.15;;;4.40;19.90;;;4.88;50.07;102193.50;4976212;28;20580;-74
2022/03/02 09:07:42;;;;;;;38.15;26.80;;;4.50;19.60;;;4.91;49.81;102199.44;4976049;28;20240;-73
2022/03/02 09:10:13;;;;;;;37.28;28.42;;;4.70;19.40;;;5.15;50.35;102189.25;4976361;28;20266;-74
2022/03/02 09:12:42;;;;;;;32.60;25.40;;;4.80;19.80;;;5.37;49.26;102185.50;4975835;28;20669;-73
2022/03/02 09:15:12;;;;;;;33.75;25.73;;;5.00;19.80;;;5.55;48.06;102186.53;4975799;28;20559;-74
2022/03/02 09:17:41;;;;;;;29.02;24.20;;;5.20;19.00;;;5.51;47.83;102186.94;4976405;28;20179;-74
2022/03/02 09:20:11;;;;;;;37.67;26.33;;;5.20;18.20;;;5.64;47.84;102190.22;4976957;28;20286;-74
2022/03/02 09:22:42;;;;;;;30.85;23.58;;;5.30;17.50;;;5.83;47.43;102184.88;4976416;28;20183;-75
2022/03/02 09:25:12;;;;;;;36.22;23.92;;;5.50;16.90;;;5.78;46.99;102179.06;4975509;28;20176;-75
2022/03/02 09:27:41;;;;;;;30.38;24.52;;;5.50;15.90;;;5.87;46.94;102182.78;4975967;28;20195;-76
2022/03/02 09:30:12;;;;;;;29.35;22.52;;;5.60;15.60;;;5.82;45.97;102193.06;4975677;28;20218;-74
2022/03/02 09:32:43;;;;;;;34.13;22.08;;;5.60;14.60;;;5.98;45.81;102188.03;4992342;28;20194;-75
2022/03/02 09:35:16;;;;;;;37.15;24.30;;;5.70;13.50;;;5.97;46.49;102180.94;4989969;28;20214;-75
2022/03/02 09:37:49;;;;;;;34.13;23.73;;;5.70;13.00;;;5.85;45.91;102169.47;4995347;28;20635;-75
2022/03/02 09:40:29;;;;;;;32.42;22.48;;;5.60;12.10;;;5.84;46.43;102172.28;4996536;28;20187;-75
2022/03/02 09:43:02;;;;;;;33.05;26.35;;;5.60;11.60;;;5.85;46.08;102177.53;4998171;28;20178;-75
2022/03/02 09:45:35;;;;;;;33.53;24.00;;;5.60;10.90;;;6.09;45.98;102174.47;5005823;28;20179;-74
2022/03/02 09:48:08;;;;;;;32.17;22.73;;;5.70;11.50;;;6.26;45.10;102176.41;5010522;28;20194;-73
2022/03/02 09:50:39;;;;;;;34.55;25.15;;;5.90;10.30;;;6.50;45.06;102176.81;5006492;28;20220;-73
2022/03/02 09:53:14;;;;;;;30.42;23.58;;;6.10;10.20;;;6.68;43.46;102176.06;5006644;28;20175;-75
2022/03/02 09:55:47;;;;;;;31.23;22.70;;;6.30;9.50;;;6.62;43.72;102176.66;4995193;28;20262;-74
2022/03/02 09:58:22;;;;;;;31.60;21.95;;;6.30;8.00;;;6.83;43.60;102182.66;5009037;28;20207;-73
2022/03/02 10:00:58;;;;;;;28.35;22.23;;;6.40;8.10;;;7.21;42.81;102179.00;5009522;28;20191;-72
2022/03/02 10:03:36;;;;;;;32.33;24.67;;;6.70;8.30;;;7.64;42.73;102172.94;5013193;28;20179;-74
2022/03/02 10:06:07;;;;;;;28.05;22.23;;;7.20;8.50;;;7.57;41.06;102169.13;5009750;28;20167;-73
2022/03/02 10:08:39;;;;;;;30.52;22.17;;;7.20;6.70;;;7.76;41.00;102166.31;5014392;28;20715;-74
2022/03/02 10:11:09;;;;;;;23.90;17.52;;;7.30;5.90;;;7.66;39.46;102171.75;5003884;28;20205;-75
2022/03/02 10:13:38;;;;;;;29.63;21.95;;;7.30;3.80;;;8.08;39.49;102165.78;4997731;28;20179;-74
2022/03/02 10:16:10;;;;;;;23.80;18.77;;;7.60;3.60;;;8.28;39.01;102167.28;4995035;28;20254;-76
2022/03/02 10:18:41;;;;;;;25.70;20.23;;;7.90;3.30;;;8.29;38.42;102169.84;4994651;28;20226;-75
2022/03/02 10:21:10;;;;;;;28.50;19.88;;;8.00;2.00;;;7.98;39.18;102160.47;4994962;28;20621;-74
2022/03/02 10:23:41;;;;;;;28.30;21.13;;;7.80;1.00;;;8.15;39.12;102159.59;4994789;28;20195;-75
2022/03/02 10:26:19;;;;;;;33.50;21.73;;;7.80;1.00;;;8.50;37.91;102157.88;4994219;28;20172;-75